Time;durP1;ratioP1;P1;durP2;ratioP2;P2;SDS_P1;SDS_P2;PMS_P1;PMS_P2;Temp;Humidity;BMP_temperature;BMP_pressure;BME280_temperature;BME280_humidity;BME280_pressure;Samples;Min_cycle;Max_cycle;Signal;HPM_P1;HPM_P2
2022/12/21 00:00:00;;;;;;;7.28;2.45;;;13.50;65.60;;;;;;5041705;28;20044;-84
2022/12/21 00:02:45;;;;;;;10.45;2.53;;;13.50;65.50;;;;;;5040141;28;20625;-83
2022/12/21 00:05:30;;;;;;;8.02;2.75;;;13.50;65.50;;;;;;5022467;28;20116;-84
2022/12/21 00:08:14;;;;;;;7.40;1.98;;;13.50;65.50;;;;;;5022562;28;20617;-84
2022/12/21 00:11:00;;;;;;;9.82;3.22;;;13.50;65.50;;;;;;5035824;28;20138;-84
2022/12/21 00:13:45;;;;;;;9.02;2.88;;;13.60;65.70;;;;;;5021413;28;20088;-84
2022/12/21 00:16:32;;;;;;;7.60;2.92;;;13.60;65.60;;;;;;5053463;28;20308;-87
2022/12/21 00:19:16;;;;;;;8.65;2.00;;;13.60;65.60;;;;;;5039779;28;20044;-85
2022/12/21 00:22:01;;;;;;;8.80;2.45;;;13.60;65.50;;;;;;5037176;28;20484;-88
2022/12/21 00:24:46;;;;;;;6.40;2.13;;;13.60;65.50;;;;;;5051737;28;20060;-87
2022/12/21 00:27:31;;;;;;;7.95;2.05;;;13.60;65.50;;;;;;5047414;28;20047;-85
2022/12/21 00:30:15;;;;;;;7.65;2.17;;;13.60;65.50;;;;;;5051390;28;20076;-86
2022/12/21 00:33:00;;;;;;;7.13;1.80;;;13.60;65.40;;;;;;5051651;28;20096;-86
2022/12/21 00:35:49;;;;;;;6.20;2.40;;;13.60;65.40;;;;;;5036326;28;20048;-87
2022/12/21 00:38:35;;;;;;;6.47;2.58;;;13.60;65.40;;;;;;5033539;28;20099;-84
2022/12/21 00:41:22;;;;;;;6.40;1.90;;;13.60;65.40;;;;;;5044737;28;20036;-86
2022/12/21 00:44:07;;;;;;;8.00;1.90;;;13.70;65.50;;;;;;5051267;28;20071;-85
2022/12/21 00:46:53;;;;;;;9.18;2.10;;;13.70;65.50;;;;;;5056437;28;20067;-86
2022/12/21 00:49:37;;;;;;;8.00;3.05;;;13.60;65.30;;;;;;5037566;28;20051;-84
2022/12/21 00:52:22;;;;;;;6.57;2.03;;;13.70;65.40;;;;;;5053228;28;20036;-86
2022/12/21 00:55:07;;;;;;;8.93;2.35;;;13.70;65.40;;;;;;5033800;28;20064;-85
2022/12/21 00:57:52;;;;;;;9.32;2.00;;;13.70;65.40;;;;;;5016464;28;20060;-85
2022/12/21 01:00:36;;;;;;;10.48;2.60;;;13.70;65.40;;;;;;5039559;28;20549;-83
2022/12/21 01:03:21;;;;;;;6.72;2.10;;;13.60;65.20;;;;;;5037330;28;20408;-84
2022/12/21 01:06:05;;;;;;;7.93;2.35;;;13.70;65.40;;;;;;5026684;28;20048;-84
2022/12/21 01:08:50;;;;;;;6.75;1.98;;;13.60;65.10;;;;;;5030242;28;20532;-84
2022/12/21 01:11:34;;;;;;;6.15;1.60;;;13.70;65.30;;;;;;5061627;28;20124;-86
2022/12/21 01:14:21;;;;;;;9.73;2.65;;;13.60;65.10;;;;;;5061569;28;20039;-85
2022/12/21 01:17:08;;;;;;;8.80;3.03;;;13.70;65.30;;;;;;5056475;28;20070;-86
2022/12/21 01:19:52;;;;;;;10.88;2.65;;;13.70;65.30;;;;;;5047851;28;20047;-86
2022/12/21 01:22:37;;;;;;;8.93;2.38;;;13.70;65.30;;;;;;5059603;28;20051;-87
2022/12/21 01:25:22;;;;;;;5.90;1.75;;;13.70;65.20;;;;;;5060160;28;20048;-84
2022/12/21 01:28:07;;;;;;;6.05;2.50;;;13.70;65.20;;;;;;5041116;28;20051;-86
2022/12/21 01:30:51;;;;;;;6.28;1.90;;;13.70;65.20;;;;;;5060481;28;20392;-87
2022/12/21 01:33:36;;;;;;;7.95;1.95;;;13.70;65.20;;;;;;5059099;28;20129;-85
2022/12/21 01:36:22;;;;;;;6.97;2.15;;;13.70;65.20;;;;;;5042829;28;20092;-85
2022/12/21 01:39:07;;;;;;;8.00;2.80;;;13.70;65.20;;;;;;5046296;28;20092;-87
2022/12/21 01:41:53;;;;;;;7.78;2.22;;;13.70;65.10;;;;;;5028427;28;20421;-86
2022/12/21 01:45:02;;;;;;;7.47;2.03;;;13.70;65.10;;;;;;5023568;28;20048;-84
2022/12/21 01:48:03;;;;;;;6.82;1.58;;;13.70;65.10;;;;;;5044568;28;20072;-84
2022/12/21 01:51:03;;;;;;;10.93;2.67;;;13.70;65.10;;;;;;5050963;28;20059;-86
2022/12/21 01:53:56;;;;;;;7.00;1.63;;;13.70;65.10;;;;;;5043564;28;20370;-87
2022/12/21 01:56:44;;;;;;;8.65;1.90;;;13.70;65.10;;;;;;5058357;28;20117;-87
2022/12/21 01:59:35;;;;;;;7.68;2.10;;;13.70;65.10;;;;;;5043506;28;20049;-86
2022/12/21 02:02:25;;;;;;;5.70;1.85;;;13.70;65.00;;;;;;5050310;28;20037;-87
2022/12/21 02:05:34;;;;;;;5.65;1.38;;;13.70;65.10;;;;;;5048592;28;20565;-87
2022/12/21 02:12:04;;;;;;;5.93;1.60;;;13.70;65.00;;;;;;5043729;28;20507;-82
2022/12/21 02:14:49;;;;;;;6.13;2.15;;;13.70;65.00;;;;;;5019913;28;20048;-82
2022/12/21 02:18:10;;;;;;;7.30;2.15;;;13.70;65.00;;;;;;5046618;28;20044;-83
2022/12/21 02:21:16;;;;;;;5.60;1.50;;;13.70;65.00;;;;;;5048759;28;20540;-85
2022/12/21 02:24:13;;;;;;;5.78;1.70;;;13.70;65.00;;;;;;5028888;28;20281;-85
2022/12/21 02:27:16;;;;;;;7.88;1.70;;;13.70;65.00;;;;;;5039805;28;20040;-86
2022/12/21 02:30:10;;;;;;;4.55;1.40;;;13.70;65.00;;;;;;5036064;28;20091;-84
2022/12/21 02:33:25;;;;;;;6.43;1.50;;;13.70;64.90;;;;;;5040662;28;20275;-86
2022/12/21 02:36:35;;;;;;;7.35;1.60;;;13.70;64.90;;;;;;5030013;28;20045;-86
2022/12/21 02:39:44;;;;;;;8.10;2.28;;;13.70;64.90;;;;;;5028342;28;20504;-85
2022/12/21 02:46:37;;;;;;;7.22;2.72;;;13.70;64.90;;;;;;5053216;28;20079;-85
2022/12/21 02:49:52;;;;;;;8.60;1.85;;;13.70;64.90;;;;;;5053967;28;20414;-86
2022/12/21 02:52:56;;;;;;;5.78;1.23;;;13.70;64.80;;;;;;5045386;28;20403;-85
2022/12/21 02:55:43;;;;;;;6.70;1.48;;;13.70;64.80;;;;;;5029721;28;20044;-84
2022/12/21 02:58:28;;;;;;;3.83;1.50;;;13.70;64.90;;;;;;5032075;28;20468;-84
2022/12/21 03:01:24;;;;;;;6.38;1.35;;;13.70;64.90;;;;;;5042502;28;20094;-84
2022/12/21 03:04:26;;;;;;;6.13;1.95;;;13.70;64.90;;;;;;5044711;28;20035;-84
2022/12/21 03:07:23;;;;;;;6.75;1.10;;;13.70;64.90;;;;;;5038094;28;20440;-84
2022/12/21 03:10:18;;;;;;;5.80;1.15;;;13.70;64.90;;;;;;5036459;28;20064;-85
2022/12/21 03:13:51;;;;;;;5.13;1.40;;;13.60;64.80;;;;;;5027121;28;20507;-85
2022/12/21 03:16:58;;;;;;;5.47;1.27;;;13.60;64.80;;;;;;5028456;28;20491;-87
2022/12/21 03:19:59;;;;;;;4.60;1.20;;;13.60;64.80;;;;;;5055113;28;20083;-87
2022/12/21 03:22:57;;;;;;;2.92;1.15;;;13.60;64.80;;;;;;5049360;28;20404;-90
2022/12/21 03:25:49;;;;;;;2.95;0.93;;;13.60;64.80;;;;;;5058477;28;20067;-88
2022/12/21 03:28:37;;;;;;;5.70;1.92;;;13.60;64.80;;;;;;5063991;28;20070;-87
2022/12/21 03:31:26;;;;;;;5.22;1.27;;;13.60;64.80;;;;;;5056743;28;20151;-86
2022/12/21 03:34:18;;;;;;;3.83;1.30;;;13.60;65.30;;;;;;5056280;28;20060;-88
2022/12/21 03:37:12;;;;;;;1.77;1.00;;;13.60;64.80;;;;;;5053335;28;20328;-85
2022/12/21 03:40:11;;;;;;;3.67;1.23;;;13.60;64.80;;;;;;5067101;28;20036;-85
2022/12/21 03:43:05;;;;;;;6.30;1.83;;;13.60;64.80;;;;;;5071014;28;20297;-84
2022/12/21 03:45:55;;;;;;;5.47;1.17;;;13.60;64.80;;;;;;5060006;28;20032;-84
2022/12/21 03:48:57;;;;;;;3.40;0.93;;;13.60;64.80;;;;;;5074879;28;20070;-84
2022/12/21 03:51:53;;;;;;;4.82;1.30;;;13.60;64.70;;;;;;5055186;28;20669;-84
2022/12/21 03:55:06;;;;;;;4.95;1.05;;;13.60;64.70;;;;;;5060982;28;20047;-84
2022/12/21 03:57:53;;;;;;;4.22;1.15;;;13.60;64.70;;;;;;5038809;28;20535;-84
2022/12/21 04:00:51;;;;;;;4.80;1.20;;;13.60;64.70;;;;;;5047945;28;20044;-84
2022/12/21 04:03:40;;;;;;;3.75;0.93;;;13.60;64.70;;;;;;5047088;28;20089;-84
2022/12/21 04:06:29;;;;;;;5.72;1.42;;;13.60;64.70;;;;;;5044520;28;20060;-86
2022/12/21 04:09:13;;;;;;;4.82;1.10;;;13.60;64.70;;;;;;5035679;28;20124;-85
2022/12/21 04:15:01;;;;;;;3.00;1.15;;;13.60;64.70;;;;;;5060558;28;20037;-85
2022/12/21 04:17:48;;;;;;;5.05;1.30;;;13.60;64.70;;;;;;5043526;28;20036;-84
2022/12/21 04:20:32;;;;;;;4.03;0.85;;;13.60;64.70;;;;;;5053800;28;20040;-85
2022/12/21 04:29:22;;;;;;;3.63;1.73;;;13.50;64.50;;;;;;5064214;28;20058;-85
2022/12/21 04:32:07;;;;;;;3.72;0.93;;;13.60;64.70;;;;;;5050872;28;20277;-85
2022/12/21 04:34:52;;;;;;;3.22;0.90;;;13.60;64.70;;;;;;5063608;28;20040;-85
2022/12/21 04:37:38;;;;;;;4.55;1.48;;;13.60;64.70;;;;;;5045170;28;20104;-86
2022/12/21 04:40:23;;;;;;;4.40;1.02;;;13.60;64.60;;;;;;5050695;28;20036;-86
2022/12/21 04:43:08;;;;;;;2.90;0.75;;;13.50;64.50;;;;;;5048494;28;20356;-85
2022/12/21 04:46:07;;;;;;;3.45;0.98;;;13.50;64.50;;;;;;5051389;28;20048;-86
2022/12/21 04:48:51;;;;;;;4.63;0.80;;;13.50;64.50;;;;;;5049106;28;20051;-87
2022/12/21 04:51:36;;;;;;;5.22;1.10;;;13.50;64.50;;;;;;5041596;28;20307;-87
2022/12/21 04:54:21;;;;;;;2.75;0.80;;;13.50;64.50;;;;;;5055085;28;20093;-85
2022/12/21 04:57:06;;;;;;;3.70;0.77;;;13.50;65.10;;;;;;5036701;28;20040;-85
2022/12/21 04:59:50;;;;;;;4.93;1.50;;;13.50;64.50;;;;;;5031774;28;20035;-88
2022/12/21 05:02:35;;;;;;;4.60;1.20;;;13.40;64.40;;;;;;5034869;28;20106;-86
2022/12/21 05:05:19;;;;;;;3.55;0.90;;;13.40;64.90;;;;;;5059154;28;20118;-87
2022/12/21 05:08:04;;;;;;;3.13;0.82;;;13.40;64.40;;;;;;5056224;28;20050;-87
2022/12/21 05:10:48;;;;;;;2.67;1.00;;;13.50;64.50;;;;;;5056556;28;20068;-85
2022/12/21 05:13:33;;;;;;;4.38;0.77;;;13.50;64.60;;;;;;5052961;28;20519;-85
2022/12/21 05:16:21;;;;;;;3.72;0.90;;;13.40;64.40;;;;;;5051194;28;20067;-86
2022/12/21 05:19:05;;;;;;;4.60;1.63;;;13.40;64.40;;;;;;5052487;28;20083;-86
2022/12/21 05:21:51;;;;;;;3.83;1.27;;;13.50;64.60;;;;;;5054523;28;20321;-86
2022/12/21 05:24:35;;;;;;;4.00;0.85;;;13.50;64.70;;;;;;5051301;28;20052;-86
2022/12/21 05:27:20;;;;;;;4.05;0.90;;;13.50;64.60;;;;;;5052745;28;20035;-87
2022/12/21 05:30:06;;;;;;;2.00;0.90;;;13.50;64.60;;;;;;5049772;28;20048;-87
2022/12/21 05:32:50;;;;;;;2.70;0.70;;;13.60;64.80;;;;;;5041899;28;20092;-86
2022/12/21 05:35:42;;;;;;;1.90;0.82;;;13.60;64.70;;;;;;5051284;28;20510;-85
2022/12/21 05:38:26;;;;;;;2.92;0.85;;;13.60;64.70;;;;;;5055103;28;20041;-85
2022/12/21 05:41:12;;;;;;;2.65;0.70;;;13.70;64.90;;;;;;5049806;28;20451;-86
2022/12/21 05:43:57;;;;;;;4.07;1.17;;;13.70;64.80;;;;;;5047063;28;20615;-86
2022/12/21 05:46:42;;;;;;;1.98;0.60;;;13.70;64.80;;;;;;5036164;28;20282;-88
2022/12/21 05:49:26;;;;;;;4.25;0.70;;;13.70;64.70;;;;;;5050583;28;20048;-86
2022/12/21 05:52:11;;;;;;;3.40;0.90;;;13.80;64.80;;;;;;5068163;28;20097;-87
2022/12/21 05:54:56;;;;;;;3.50;1.52;;;13.80;64.80;;;;;;5057786;28;20090;-87
2022/12/21 05:57:40;;;;;;;3.55;0.90;;;13.80;64.80;;;;;;5043289;28;20578;-88
2022/12/21 06:00:25;;;;;;;2.15;0.60;;;13.80;64.70;;;;;;5060506;28;20040;-88
2022/12/21 06:03:09;;;;;;;3.85;1.20;;;13.90;64.90;;;;;;5060028;28;20055;-88
2022/12/21 06:06:04;;;;;;;3.53;1.02;;;13.90;64.90;;;;;;5052039;28;20322;-86
2022/12/21 06:08:49;;;;;;;2.03;1.00;;;13.90;64.80;;;;;;5047621;28;20044;-88
2022/12/21 06:11:33;;;;;;;2.33;0.70;;;13.90;64.80;;;;;;5064415;28;20059;-88
2022/12/21 06:14:18;;;;;;;3.15;0.65;;;14.00;65.00;;;;;;5045606;28;20047;-87
2022/12/21 06:17:03;;;;;;;3.53;0.88;;;14.00;64.90;;;;;;5047705;28;20102;-84
2022/12/21 06:19:47;;;;;;;1.65;0.57;;;14.00;64.90;;;;;;5045518;28;20407;-80
2022/12/21 06:22:35;;;;;;;4.38;1.23;;;14.10;65.00;;;;;;5038939;28;20043;-83
2022/12/21 06:25:20;;;;;;;2.13;1.00;;;14.10;65.00;;;;;;5052297;28;20510;-87
2022/12/21 06:28:04;;;;;;;1.55;0.65;;;14.10;65.00;;;;;;5043685;28;20047;-83
2022/12/21 06:30:50;;;;;;;3.95;0.80;;;14.10;65.10;;;;;;5059321;28;20233;-90
2022/12/21 06:33:35;;;;;;;3.33;1.38;;;14.20;65.30;;;;;;5033084;28;20103;-83
2022/12/21 06:36:20;;;;;;;3.65;0.85;;;14.20;65.30;;;;;;5058594;28;20344;-89
2022/12/21 06:39:05;;;;;;;1.75;0.88;;;14.30;65.50;;;;;;5041146;28;20587;-87
2022/12/21 06:41:49;;;;;;;3.05;1.10;;;14.30;65.60;;;;;;5051287;28;20039;-82
2022/12/21 06:44:34;;;;;;;1.60;0.63;;;14.40;65.80;;;;;;5057747;28;20515;-81
2022/12/21 06:47:19;;;;;;;1.92;0.70;;;14.40;65.80;;;;;;5063665;28;20055;-94
2022/12/21 06:50:04;;;;;;;4.30;1.55;;;14.40;65.80;;;;;;5046376;28;20101;-89
2022/12/21 06:52:49;;;;;;;6.55;1.13;;;14.40;65.80;;;;;;5040574;28;20044;-87
2022/12/21 06:55:33;;;;;;;2.38;1.10;;;14.30;65.50;;;;;;5026139;28;20098;-82
2022/12/21 06:58:18;;;;;;;5.13;1.08;;;14.30;65.60;;;;;;5040108;28;20089;-79
2022/12/21 07:01:08;;;;;;;2.40;0.88;;;14.20;65.50;;;;;;5047405;28;20039;-84
2022/12/21 07:03:53;;;;;;;4.88;0.85;;;14.00;65.30;;;;;;5034846;28;20033;-87
2022/12/21 07:06:38;;;;;;;5.50;1.70;;;13.90;65.30;;;;;;5047162;28;20118;-87
2022/12/21 07:09:23;;;;;;;4.50;1.00;;;13.80;65.30;;;;;;5058616;28;20040;-86
2022/12/21 07:12:07;;;;;;;5.57;0.90;;;13.70;65.40;;;;;;5039185;28;20193;-89
2022/12/21 07:14:52;;;;;;;5.72;1.15;;;13.60;65.40;;;;;;5026378;28;20080;-88
2022/12/21 07:17:36;;;;;;;2.60;1.00;;;13.50;65.40;;;;;;5043313;28;20363;-91
2022/12/21 07:20:20;;;;;;;2.47;0.60;;;13.50;65.50;;;;;;5037921;28;20087;-90
2022/12/21 07:23:05;;;;;;;3.65;0.98;;;13.40;65.40;;;;;;5047641;28;20039;-92
2022/12/21 07:25:50;;;;;;;5.03;0.80;;;13.40;65.60;;;;;;5045872;28;20384;-92
2022/12/21 07:28:35;;;;;;;4.50;1.20;;;13.30;65.50;;;;;;5048879;28;20108;-94
2022/12/21 07:31:22;;;;;;;7.50;1.30;;;13.20;65.50;;;;;;5043552;28;20050;-89
2022/12/21 07:34:07;;;;;;;2.80;1.38;;;13.10;65.40;;;;;;5036723;28;20048;-85
2022/12/21 07:36:51;;;;;;;4.20;0.88;;;13.10;65.50;;;;;;5028341;28;20091;-85
2022/12/21 07:39:36;;;;;;;3.70;0.82;;;13.00;65.40;;;;;;5035231;28;20032;-89
2022/12/21 07:42:21;;;;;;;4.35;1.92;;;13.00;65.50;;;;;;5049423;28;20032;-84
2022/12/21 07:45:20;;;;;;;5.45;1.10;;;12.90;65.50;;;;;;5035187;28;20447;-80
2022/12/21 07:48:07;;;;;;;5.15;0.90;;;12.80;65.40;;;;;;5042926;28;20063;-78
2022/12/21 07:50:51;;;;;;;6.38;1.10;;;12.70;65.30;;;;;;5033317;28;20052;-89
2022/12/21 07:53:36;;;;;;;3.03;0.90;;;12.70;65.40;;;;;;5042859;28;20600;-89
2022/12/21 07:56:20;;;;;;;4.35;1.52;;;12.70;65.50;;;;;;5033399;28;20098;-90
2022/12/21 07:59:05;;;;;;;6.63;1.23;;;12.60;65.40;;;;;;5023137;28;20484;-88
2022/12/21 08:01:50;;;;;;;6.70;1.75;;;12.50;65.40;;;;;;5025760;28;20047;-88
2022/12/21 08:04:34;;;;;;;3.95;1.27;;;12.50;65.50;;;;;;5040712;28;20170;-87
2022/12/21 08:07:19;;;;;;;2.10;0.88;;;12.40;65.40;;;;;;5040807;28;20075;-87
2022/12/21 08:10:04;;;;;;;4.32;1.30;;;12.40;65.50;;;;;;5058698;28;20063;-88
2022/12/21 08:12:48;;;;;;;4.20;0.90;;;12.40;65.50;;;;;;5041931;28;20887;-86
2022/12/21 08:15:33;;;;;;;3.08;0.98;;;12.40;65.70;;;;;;5043792;28;20186;-91
2022/12/21 08:18:18;;;;;;;4.35;1.23;;;12.30;65.60;;;;;;5032293;28;20184;-86
2022/12/21 08:21:03;;;;;;;3.47;1.20;;;12.30;65.70;;;;;;5059723;28;20048;-84
2022/12/21 08:23:48;;;;;;;4.35;1.30;;;12.30;65.70;;;;;;5037679;28;20047;-88
2022/12/21 08:26:33;;;;;;;3.28;1.13;;;12.30;65.80;;;;;;5051305;28;20091;-85
2022/12/21 08:29:17;;;;;;;2.42;1.05;;;12.20;65.70;;;;;;5054120;28;20032;-84
2022/12/21 08:32:03;;;;;;;4.57;0.85;;;12.20;65.80;;;;;;5031300;28;20516;-84
2022/12/21 08:34:48;;;;;;;6.28;1.20;;;12.20;65.80;;;;;;5035866;28;20354;-83
2022/12/21 08:37:32;;;;;;;2.45;0.70;;;12.20;65.80;;;;;;5012226;28;20068;-79
2022/12/21 08:40:18;;;;;;;4.43;1.05;;;12.10;65.80;;;;;;5030432;28;20126;-79
2022/12/21 08:43:02;;;;;;;3.25;0.82;;;12.10;65.90;;;;;;5034900;28;20102;-78
2022/12/21 08:45:47;;;;;;;2.95;0.70;;;12.00;65.70;;;;;;5027268;28;20044;-80
2022/12/21 08:48:32;;;;;;;4.22;0.63;;;12.00;65.80;;;;;;5034692;28;20094;-78
2022/12/21 08:51:16;;;;;;;3.88;1.10;;;12.00;65.90;;;;;;5031453;28;20045;-79
2022/12/21 08:54:01;;;;;;;3.13;0.77;;;12.00;65.90;;;;;;5052261;28;20055;-79
2022/12/21 08:56:45;;;;;;;4.57;1.85;;;12.00;66.00;;;;;;5038782;28;20396;-79
2022/12/21 08:59:30;;;;;;;4.38;0.65;;;12.00;66.00;;;;;;5036836;28;20421;-78
2022/12/21 09:02:15;;;;;;;2.40;0.63;;;12.00;66.10;;;;;;5046870;28;20129;-79
2022/12/21 09:04:59;;;;;;;1.52;1.10;;;12.00;66.10;;;;;;5039385;28;20063;-78
2022/12/21 09:07:44;;;;;;;3.70;0.55;;;12.00;66.10;;;;;;5033566;28;20090;-78
2022/12/21 09:10:29;;;;;;;4.47;0.95;;;12.00;66.20;;;;;;5047691;28;20185;-79
2022/12/21 09:13:13;;;;;;;2.60;0.73;;;12.00;66.20;;;;;;5042963;28;20377;-78
2022/12/21 09:15:58;;;;;;;4.32;0.80;;;12.00;66.20;;;;;;5048786;28;20094;-79
2022/12/21 09:18:43;;;;;;;1.85;0.80;;;12.00;66.20;;;;;;5049458;28;20043;-79
2022/12/21 09:21:27;;;;;;;2.33;0.95;;;12.00;66.20;;;;;;5045901;28;20040;-79
2022/12/21 09:24:13;;;;;;;2.55;0.70;;;12.00;66.20;;;;;;5041381;28;20496;-79
2022/12/21 09:26:58;;;;;;;4.47;0.90;;;12.00;66.20;;;;;;5050119;28;20394;-79
2022/12/21 09:29:42;;;;;;;4.68;0.90;;;12.00;66.20;;;;;;5064177;28;20047;-80
2022/12/21 09:32:27;;;;;;;1.35;0.60;;;12.00;66.20;;;;;;5045887;28;20043;-81
2022/12/21 09:35:12;;;;;;;4.50;0.80;;;12.00;66.20;;;;;;5046566;28;20040;-80
2022/12/21 09:37:57;;;;;;;2.00;0.77;;;12.00;66.20;;;;;;5053395;28;20400;-78
2022/12/21 09:40:41;;;;;;;3.90;0.93;;;12.00;66.20;;;;;;5060832;28;20246;-77
2022/12/21 09:43:40;;;;;;;2.10;0.73;;;12.10;66.40;;;;;;5049250;28;20431;-79
2022/12/21 09:46:26;;;;;;;4.35;2.05;;;12.10;66.40;;;;;;5047056;28;20044;-79
2022/12/21 09:49:18;;;;;;;4.03;0.88;;;12.10;66.40;;;;;;5053719;28;20060;-79
2022/12/21 09:52:06;;;;;;;2.83;1.40;;;12.00;66.30;;;;;;5042328;28;20097;-79
2022/12/21 09:55:04;;;;;;;4.80;1.20;;;12.00;66.30;;;;;;5056455;28;20064;-79
2022/12/21 09:57:53;;;;;;;3.08;0.80;;;12.10;67.10;;;;;;5039854;28;20102;-78
2022/12/21 10:00:40;;;;;;;4.78;1.02;;;12.00;66.40;;;;;;5056021;28;20090;-79
2022/12/21 10:04:26;;;;;;;3.70;0.65;;;12.10;66.60;;;;;;5053025;28;20078;-79
2022/12/21 10:07:23;;;;;;;6.10;0.80;;;12.10;66.60;;;;;;5025206;28;20044;-80
2022/12/21 10:10:28;;;;;;;3.13;1.42;;;12.10;66.50;;;;;;5050443;28;20060;-85
2022/12/21 10:13:31;;;;;;;2.70;0.88;;;12.10;66.50;;;;;;5054983;28;20091;-83
2022/12/21 10:16:58;;;;;;;2.83;1.10;;;12.10;67.00;;;;;;5071882;28;20058;-88
2022/12/21 10:19:52;;;;;;;4.22;1.17;;;12.10;66.50;;;;;;5062646;28;20135;-88
2022/12/21 10:22:42;;;;;;;2.83;0.90;;;12.10;66.60;;;;;;5053739;28;20045;-86
2022/12/21 10:25:42;;;;;;;3.85;0.60;;;12.00;66.40;;;;;;5060683;28;20072;-87
2022/12/21 10:28:32;;;;;;;3.22;1.23;;;12.10;66.60;;;;;;5060723;28;20066;-85
2022/12/21 10:31:39;;;;;;;1.52;0.77;;;12.10;66.60;;;;;;5073428;28;20083;-86
2022/12/21 10:34:30;;;;;;;3.45;1.55;;;12.10;66.60;;;;;;5043345;28;20503;-86
2022/12/21 10:37:20;;;;;;;6.15;0.93;;;12.10;66.60;;;;;;5041217;28;20055;-87
2022/12/21 10:40:05;;;;;;;4.30;1.13;;;12.10;66.60;;;;;;5070253;28;20035;-86
2022/12/21 10:42:51;;;;;;;3.38;1.10;;;12.10;66.60;;;;;;5067363;28;20498;-86
2022/12/21 10:45:35;;;;;;;4.47;1.52;;;12.20;66.70;;;;;;5056680;28;20032;-82
2022/12/21 10:48:20;;;;;;;2.55;0.82;;;12.30;66.80;;;;;;5044005;28;20122;-82
2022/12/21 10:51:25;;;;;;;3.42;0.90;;;12.30;66.70;;;;;;5067879;28;20055;-81
2022/12/21 10:54:10;;;;;;;5.00;1.00;;;12.40;66.70;;;;;;5055945;28;20116;-89
2022/12/21 10:56:57;;;;;;;2.92;0.57;;;12.50;66.70;;;;;;5058496;28;20516;-88
2022/12/21 10:59:42;;;;;;;3.95;0.95;;;12.60;66.70;;;;;;5051330;28;20172;-81
2022/12/21 11:02:37;;;;;;;3.80;0.65;;;12.80;66.90;;;;;;5082130;28;20067;-88
2022/12/21 11:05:32;;;;;;;4.57;1.63;;;12.80;66.60;;;;;;5072252;28;20104;-88
2022/12/21 11:08:19;;;;;;;2.40;1.00;;;12.80;66.50;;;;;;5072680;28;20073;-84
2022/12/21 11:11:04;;;;;;;4.28;1.08;;;12.90;66.60;;;;;;5067911;28;20059;-90
2022/12/21 11:13:56;;;;;;;2.88;0.85;;;13.00;66.70;;;;;;5062872;28;20036;-87
2022/12/21 11:16:41;;;;;;;3.80;0.95;;;13.00;66.60;;;;;;5049239;28;20635;-90
2022/12/21 11:19:26;;;;;;;2.58;0.60;;;13.10;66.70;;;;;;5043476;28;20071;-80
2022/12/21 11:22:14;;;;;;;4.57;0.90;;;13.10;66.70;;;;;;5031340;28;20040;-81
2022/12/21 11:25:00;;;;;;;4.00;0.80;;;13.20;66.70;;;;;;5049326;28;20085;-81
2022/12/21 11:27:47;;;;;;;3.75;1.55;;;13.20;66.70;;;;;;5048680;28;20044;-89
2022/12/21 11:30:35;;;;;;;3.53;0.88;;;13.30;66.70;;;;;;5059597;28;20051;-87
2022/12/21 11:33:21;;;;;;;6.53;1.10;;;13.40;66.80;;;;;;5050040;28;20047;-89
2022/12/21 11:36:12;;;;;;;4.65;1.13;;;13.50;66.80;;;;;;5042998;28;20223;-88
2022/12/21 11:38:57;;;;;;;2.30;0.95;;;13.60;66.70;;;;;;5043781;28;20071;-88
2022/12/21 11:41:50;;;;;;;3.53;1.38;;;13.80;66.80;;;;;;5042978;28;20131;-91
2022/12/21 11:44:35;;;;;;;2.28;0.90;;;13.80;66.60;;;;;;5042549;28;20051;-90
2022/12/21 11:47:49;;;;;;;5.38;1.80;;;13.90;66.50;;;;;;5045762;28;20068;-91
2022/12/21 11:50:47;;;;;;;6.30;1.67;;;13.90;66.50;;;;;;5040666;28;20266;-87
2022/12/21 11:54:03;;;;;;;2.45;0.82;;;13.90;66.50;;;;;;5031772;28;20090;-91
2022/12/21 11:57:07;;;;;;;4.35;1.48;;;13.90;66.60;;;;;;5041060;28;20067;-89
2022/12/21 12:00:03;;;;;;;2.65;0.93;;;13.80;66.50;;;;;;5038158;28;20048;-82
2022/12/21 12:03:26;;;;;;;6.47;1.02;;;13.80;66.60;;;;;;5048824;28;20075;-87
2022/12/21 12:06:17;;;;;;;3.38;0.82;;;13.80;66.80;;;;;;5056299;28;20046;-90
2022/12/21 12:09:24;;;;;;;3.85;1.23;;;13.70;66.70;;;;;;5039951;28;20600;-85
2022/12/21 12:12:24;;;;;;;3.33;0.70;;;13.70;66.70;;;;;;5043913;28;20087;-88
2022/12/21 12:15:26;;;;;;;5.22;1.10;;;13.70;66.80;;;;;;5023037;28;20118;-86
2022/12/21 12:18:48;;;;;;;2.45;0.70;;;13.70;66.80;;;;;;5047864;28;20048;-86
2022/12/21 12:21:51;;;;;;;3.25;0.90;;;13.60;66.70;;;;;;5046229;28;20032;-80
2022/12/21 12:25:00;;;;;;;2.08;0.50;;;13.60;66.70;;;;;;5045580;28;20043;-79
2022/12/21 12:28:19;;;;;;;3.10;0.90;;;13.60;66.70;;;;;;5058002;28;20067;-79
2022/12/21 12:31:30;;;;;;;2.35;0.68;;;13.70;66.80;;;;;;5040879;28;20110;-95
2022/12/21 12:34:40;;;;;;;2.35;1.23;;;13.70;66.70;;;;;;5044007;28;20044;-90
2022/12/21 12:37:46;;;;;;;2.60;0.75;;;13.80;66.70;;;;;;5041637;28;20094;-88
2022/12/21 12:41:05;;;;;;;4.35;0.75;;;13.80;66.60;;;;;;5044782;28;20044;-88
2022/12/21 12:44:04;;;;;;;2.70;0.80;;;13.90;66.60;;;;;;5037301;28;20091;-87
2022/12/21 12:47:02;;;;;;;1.52;0.60;;;14.00;66.60;;;;;;5014762;28;20122;-92
2022/12/21 12:50:00;;;;;;;2.13;0.70;;;14.00;66.40;;;;;;5040265;28;20103;-83
2022/12/21 12:53:17;;;;;;;3.97;0.80;;;14.10;66.50;;;;;;5038359;28;20103;-78
2022/12/21 12:56:23;;;;;;;3.30;0.75;;;14.20;66.50;;;;;;5028824;28;20040;-79
2022/12/21 12:59:15;;;;;;;3.13;0.90;;;14.30;66.40;;;;;;5038673;28;20491;-81
2022/12/21 13:02:12;;;;;;;4.15;0.70;;;14.30;66.20;;;;;;5025397;28;20275;-88
2022/12/21 13:05:16;;;;;;;3.67;0.90;;;14.30;66.10;;;;;;5022344;28;20131;-88
2022/12/21 13:08:13;;;;;;;2.65;0.70;;;14.40;66.20;;;;;;5023122;28;20048;-83
2022/12/21 13:11:16;;;;;;;4.95;1.00;;;14.40;66.20;;;;;;5046270;28;20098;-90
2022/12/21 13:14:10;;;;;;;3.28;0.90;;;14.30;66.00;;;;;;5048203;28;20044;-91
2022/12/21 13:17:13;;;;;;;4.55;1.13;;;14.30;66.20;;;;;;5043034;28;20047;-89
2022/12/21 13:20:01;;;;;;;4.82;0.98;;;14.30;66.30;;;;;;5043691;28;20336;-83
2022/12/21 13:22:54;;;;;;;3.92;0.95;;;14.30;66.30;;;;;;5037001;28;20075;-83
2022/12/21 13:25:46;;;;;;;3.55;0.80;;;14.20;66.20;;;;;;5049483;28;20035;-83
2022/12/21 13:28:37;;;;;;;2.53;0.90;;;14.20;66.30;;;;;;5049632;28;20569;-84
2022/12/21 13:31:28;;;;;;;2.17;0.77;;;14.20;66.30;;;;;;5048930;28;20273;-84
2022/12/21 13:34:19;;;;;;;1.67;0.57;;;14.20;66.40;;;;;;5035897;28;20287;-87
2022/12/21 13:37:10;;;;;;;1.30;0.50;;;14.20;66.50;;;;;;5026104;28;20060;-87
2022/12/21 13:40:18;;;;;;;2.88;0.88;;;14.20;67.10;;;;;;5039142;28;20194;-87
2022/12/21 13:43:30;;;;;;;2.42;0.70;;;14.20;66.40;;;;;;5024541;28;20404;-88
2022/12/21 13:46:17;;;;;;;4.93;1.42;;;14.20;66.40;;;;;;5033834;28;20177;-87
2022/12/21 13:49:27;;;;;;;1.83;0.88;;;14.20;66.40;;;;;;5051561;28;20056;-87
2022/12/21 13:52:22;;;;;;;4.45;1.38;;;14.20;66.40;;;;;;5057722;28;20456;-91
2022/12/21 13:55:12;;;;;;;1.48;0.60;;;14.20;66.40;;;;;;5034149;28;20144;-88
2022/12/21 13:57:57;;;;;;;2.53;0.90;;;14.20;66.40;;;;;;5042227;28;20036;-86
2022/12/21 14:00:51;;;;;;;2.40;0.82;;;14.20;66.40;;;;;;5047401;28;20137;-91
2022/12/21 14:03:56;;;;;;;3.05;0.85;;;14.20;66.40;;;;;;5055227;28;20091;-83
2022/12/21 14:07:19;;;;;;;3.42;1.20;;;14.10;66.20;;;;;;5050282;28;20458;-93
2022/12/21 14:10:15;;;;;;;2.47;0.77;;;14.10;66.50;;;;;;5024466;28;20044;-87
2022/12/21 14:13:37;;;;;;;3.65;1.00;;;14.10;66.60;;;;;;5039046;28;20048;-87
2022/12/21 14:16:31;;;;;;;2.88;0.75;;;14.00;66.50;;;;;;5045089;28;20769;-90
2022/12/21 14:19:21;;;;;;;4.50;0.68;;;14.00;66.60;;;;;;5040401;28;20539;-91
2022/12/21 14:22:14;;;;;;;2.33;0.77;;;13.90;66.50;;;;;;5043010;28;20041;-85
2022/12/21 14:25:03;;;;;;;4.20;1.13;;;13.80;66.40;;;;;;5041983;28;20167;-95
2022/12/21 14:28:19;;;;;;;2.00;0.80;;;13.80;66.50;;;;;;5066042;28;20117;-95
2022/12/21 14:31:10;;;;;;;2.22;0.75;;;13.70;66.40;;;;;;5032895;28;20079;-94
2022/12/21 14:33:58;;;;;;;1.55;0.63;;;13.60;66.50;;;;;;5041706;28;20044;-92
2022/12/21 14:37:10;;;;;;;2.03;0.68;;;13.60;66.60;;;;;;5043596;28;20629;-80
2022/12/21 14:40:25;;;;;;;2.30;0.70;;;13.50;66.50;;;;;;5036373;28;20503;-80
2022/12/21 14:43:09;;;;;;;1.73;0.70;;;13.40;66.50;;;;;;5034893;28;20904;-81
2022/12/21 14:45:54;;;;;;;2.10;0.73;;;13.30;66.50;;;;;;5031899;28;20389;-79
2022/12/21 14:48:39;;;;;;;1.17;0.68;;;13.20;66.50;;;;;;5041534;28;20214;-90
2022/12/21 14:51:48;;;;;;;2.80;0.75;;;13.20;66.60;;;;;;5027170;28;20100;-90
2022/12/21 14:54:37;;;;;;;5.22;1.00;;;13.10;66.60;;;;;;5032819;28;20661;-91
2022/12/21 14:57:24;;;;;;;3.28;0.95;;;13.00;66.50;;;;;;5032911;28;20103;-93
2022/12/21 15:00:11;;;;;;;1.85;0.80;;;12.90;66.40;;;;;;5048148;28;20068;-94
2022/12/21 15:02:58;;;;;;;1.63;0.70;;;12.90;66.50;;;;;;5031819;28;20558;-90
2022/12/21 15:05:48;;;;;;;3.28;1.00;;;12.80;66.50;;;;;;5030485;28;20358;-93